createdAt,value
2018-11-01T00:01:56.673Z,2.20
2018-11-01T00:05:02.012Z,2.47
2018-11-01T00:08:07.505Z,2.40
2018-11-01T00:11:12.859Z,2.40
2018-11-01T00:14:18.338Z,2.40
2018-11-01T00:17:23.811Z,2.63
2018-11-01T00:20:29.135Z,2.70
2018-11-01T00:23:34.605Z,2.40
2018-11-01T00:26:39.958Z,2.40
2018-11-01T00:29:45.370Z,2.40
2018-11-01T00:32:50.929Z,2.43
2018-11-01T00:35:56.255Z,2.07
2018-11-01T00:39:01.606Z,2.93
2018-11-01T00:42:07.462Z,2.10
2018-11-01T00:45:13.345Z,1.97
2018-11-01T00:48:18.681Z,2.13
2018-11-01T00:51:24.010Z,2.30
2018-11-01T00:54:29.442Z,2.30
2018-11-01T00:57:34.819Z,2.30
2018-11-01T01:00:40.885Z,2.47
2018-11-01T01:03:46.699Z,2.10
2018-11-01T01:06:52.033Z,2.40
2018-11-01T01:09:57.374Z,2.60
2018-11-01T01:13:03.317Z,2.37
2018-11-01T01:16:08.698Z,2.20
2018-11-01T01:19:14.064Z,2.17
2018-11-01T01:22:19.520Z,2.13
2018-11-01T01:25:24.852Z,2.40
2018-11-01T01:28:30.565Z,2.20
2018-11-01T01:31:36.008Z,2.30
2018-11-01T01:34:41.437Z,2.40
2018-11-01T01:37:47.115Z,2.37
2018-11-01T01:40:52.448Z,2.40
2018-11-01T01:43:57.900Z,2.13
2018-11-01T01:47:03.261Z,2.40
2018-11-01T01:50:12.806Z,2.27
2018-11-01T01:53:18.450Z,2.07
2018-11-01T01:56:23.786Z,1.90
2018-11-01T01:59:29.190Z,2.10
2018-11-01T02:02:34.598Z,2.20
2018-11-01T02:05:39.922Z,1.97
2018-11-01T02:08:45.270Z,1.80
2018-11-01T02:11:50.824Z,1.90
2018-11-01T02:14:56.261Z,2.30
2018-11-01T02:18:01.637Z,2.20
2018-11-01T02:21:07.746Z,1.80
2018-11-01T02:24:13.302Z,2.30
2018-11-01T02:27:18.694Z,2.20
2018-11-01T02:30:24.426Z,2.30
2018-11-01T02:33:29.989Z,2.30
2018-11-01T02:36:35.319Z,2.07
2018-11-01T02:39:40.666Z,1.90
2018-11-01T02:42:46.145Z,2.10
2018-11-01T02:45:51.474Z,1.97
2018-11-01T02:48:56.857Z,2.00
2018-11-01T02:52:02.250Z,1.90
2018-11-01T02:55:07.946Z,1.80
2018-11-01T02:58:13.333Z,2.00
2018-11-01T03:01:19.430Z,1.73
2018-11-01T03:04:24.889Z,1.93
2018-11-01T03:07:30.253Z,2.03
2018-11-01T03:10:35.578Z,2.27
2018-11-01T03:13:41.028Z,1.90
2018-11-01T03:16:46.360Z,2.03
2018-11-01T03:19:51.709Z,1.90
2018-11-01T03:22:57.157Z,2.10
2018-11-01T03:26:03.142Z,2.10
2018-11-01T03:29:08.488Z,2.30
2018-11-01T03:32:13.919Z,1.80
2018-11-01T03:35:19.335Z,2.27
2018-11-01T03:38:24.969Z,2.50
2018-11-01T03:41:30.473Z,2.00
2018-11-01T03:44:35.837Z,1.87
2018-11-01T03:47:41.694Z,1.97
2018-11-01T03:50:47.034Z,1.90
2018-11-01T03:53:52.497Z,2.00
2018-11-01T03:56:58.025Z,2.10
2018-11-01T04:00:03.362Z,2.60
2018-11-01T04:03:08.802Z,2.20
2018-11-01T04:06:14.121Z,2.30
2018-11-01T04:09:19.471Z,2.20
2018-11-01T04:12:24.838Z,2.20
2018-11-01T04:15:30.297Z,2.33
2018-11-01T04:18:35.630Z,2.00
2018-11-01T04:21:40.965Z,2.33
2018-11-01T04:24:46.314Z,2.17
2018-11-01T04:27:51.679Z,2.17
2018-11-01T04:30:57.205Z,2.20
2018-11-01T04:34:02.605Z,2.20
2018-11-01T04:37:08.270Z,2.20
2018-11-01T04:40:13.657Z,2.60
2018-11-01T04:43:19.211Z,2.07
2018-11-01T04:46:24.772Z,2.40
2018-11-01T04:49:30.290Z,2.10
2018-11-01T04:52:36.041Z,2.30
2018-11-01T04:55:53.241Z,2.07
2018-11-01T04:58:58.586Z,2.20
2018-11-01T05:02:04.006Z,2.70
2018-11-01T05:05:09.384Z,2.70
2018-11-01T05:08:14.986Z,2.73
2018-11-01T05:11:20.565Z,2.53
2018-11-01T05:14:26.038Z,2.70
2018-11-01T05:17:31.382Z,2.70
2018-11-01T05:20:37.214Z,2.60
2018-11-01T05:23:42.668Z,2.80
2018-11-01T05:26:47.986Z,2.80
2018-11-01T05:29:53.439Z,3.20
2018-11-01T05:32:58.794Z,2.90
2018-11-01T05:36:04.574Z,3.17
2018-11-01T05:39:12.198Z,3.50
2018-11-01T05:42:17.700Z,3.33
2018-11-01T05:45:23.066Z,4.00
2018-11-01T05:48:28.399Z,3.80
2018-11-01T05:51:33.777Z,3.30
2018-11-01T05:54:39.929Z,4.00
2018-11-01T05:57:45.238Z,3.80
2018-11-01T06:00:50.579Z,4.10
2018-11-01T06:03:55.957Z,3.77
2018-11-01T06:07:01.305Z,4.00
2018-11-01T06:10:07.464Z,3.83
2018-11-01T06:13:12.909Z,3.80
2018-11-01T06:16:18.341Z,4.50
2018-11-01T06:19:23.653Z,4.20
2018-11-01T06:22:29.082Z,3.30
2018-11-01T06:25:34.996Z,3.80
2018-11-01T06:28:40.327Z,3.53
2018-11-01T06:31:45.754Z,3.47
2018-11-01T06:34:53.469Z,3.40
2018-11-01T06:37:59.146Z,3.77
2018-11-01T06:41:04.514Z,3.70
2018-11-01T06:44:10.311Z,3.30
2018-11-01T06:47:15.694Z,4.03
2018-11-01T06:50:21.013Z,3.57
2018-11-01T06:53:27.033Z,3.53
2018-11-01T06:56:32.406Z,3.40
2018-11-01T06:59:38.695Z,2.90
2018-11-01T07:02:44.451Z,3.67
2018-11-01T07:05:50.416Z,3.53
2018-11-01T07:08:56.109Z,3.30
2018-11-01T07:12:01.726Z,4.13
2018-11-01T07:15:08.898Z,3.50
2018-11-01T07:18:14.334Z,3.40
2018-11-01T07:21:19.815Z,3.67
2018-11-01T07:24:25.201Z,3.87
2018-11-01T07:27:30.606Z,3.50
2018-11-01T07:30:35.922Z,3.77
2018-11-01T07:33:41.350Z,3.93
2018-11-01T07:36:46.861Z,3.60
2018-11-01T07:39:52.398Z,4.10
2018-11-01T07:42:58.083Z,3.77
2018-11-01T07:46:03.441Z,3.73
2018-11-01T07:49:09.033Z,3.60
2018-11-01T07:52:14.516Z,4.37
2018-11-01T07:55:19.841Z,4.33
2018-11-01T07:58:25.283Z,7.27
2018-11-01T08:01:32.637Z,4.47
2018-11-01T08:04:38.998Z,4.30
2018-11-01T08:07:45.054Z,5.10
2018-11-01T08:10:50.413Z,4.57
2018-11-01T08:13:55.976Z,4.70
2018-11-01T08:17:02.163Z,4.30
2018-11-01T08:20:10.547Z,4.20
2018-11-01T08:23:16.230Z,4.87
2018-11-01T08:26:21.601Z,4.93
2018-11-01T08:29:26.942Z,4.70
2018-11-01T08:32:32.730Z,4.63
2018-11-01T08:35:38.098Z,4.83
2018-11-01T08:38:43.566Z,4.60
2018-11-01T08:41:49.196Z,4.97
2018-11-01T08:44:54.581Z,5.20
2018-11-01T08:48:00.397Z,4.90
2018-11-01T08:51:06.223Z,4.87
2018-11-01T08:54:11.648Z,5.20
2018-11-01T08:57:17.069Z,5.20
2018-11-01T09:00:22.434Z,5.87
2018-11-01T09:03:27.886Z,5.03
2018-11-01T09:06:33.271Z,5.30
2018-11-01T09:09:38.646Z,5.77
2018-11-01T09:12:44.412Z,5.10
2018-11-01T09:15:50.125Z,4.97
2018-11-01T09:18:55.506Z,5.53
2018-11-01T09:22:01.262Z,5.50
2018-11-01T09:25:08.285Z,6.00
2018-11-01T09:28:13.634Z,5.47
2018-11-01T09:31:19.005Z,6.07
2018-11-01T09:34:24.382Z,5.97
2018-11-01T09:37:32.277Z,6.37
2018-11-01T09:40:37.667Z,6.10
2018-11-01T09:43:43.730Z,6.10
2018-11-01T09:46:49.528Z,6.93
2018-11-01T09:49:54.748Z,6.53
2018-11-01T09:53:00.102Z,6.47
2018-11-01T09:56:05.902Z,6.93
2018-11-01T09:59:11.682Z,6.33
2018-11-01T10:02:17.042Z,6.27
2018-11-01T10:05:22.404Z,6.17
2018-11-01T10:08:27.744Z,7.10
2018-11-01T10:11:33.179Z,6.67
2018-11-01T10:14:38.629Z,6.90
2018-11-01T10:17:44.511Z,5.93
2018-11-01T10:20:49.588Z,6.27
2018-11-01T10:23:55.017Z,6.73
2018-11-01T10:27:00.767Z,7.07
2018-11-01T10:30:09.465Z,6.23
2018-11-01T10:33:14.851Z,6.40
2018-11-01T10:36:20.246Z,6.90
2018-11-01T10:39:25.586Z,6.33
2018-11-01T10:42:31.029Z,6.73
2018-11-01T10:45:36.417Z,6.57
2018-11-01T10:48:42.174Z,6.70
2018-11-01T10:51:47.787Z,7.10
2018-11-01T10:54:53.158Z,6.67
2018-11-01T10:58:00.737Z,7.03
2018-11-01T11:01:12.235Z,6.77
2018-11-01T11:04:17.878Z,7.00
2018-11-01T11:07:23.274Z,6.57
2018-11-01T11:10:28.619Z,6.90
2018-11-01T11:13:34.027Z,6.70
2018-11-01T11:16:39.382Z,6.83
2018-11-01T11:19:45.774Z,6.37
2018-11-01T11:22:52.006Z,6.43
2018-11-01T11:25:57.409Z,7.20
2018-11-01T11:29:02.793Z,7.43
2018-11-01T11:32:08.518Z,7.13
2018-11-01T11:35:13.888Z,6.80
2018-11-01T11:38:19.267Z,7.03
2018-11-01T11:41:24.626Z,7.07
2018-11-01T11:44:30.134Z,6.70
2018-11-01T11:47:35.884Z,6.90
2018-11-01T11:50:41.319Z,7.03
2018-11-01T11:53:46.768Z,6.83
2018-11-01T11:56:52.125Z,6.73
2018-11-01T11:59:57.742Z,8.77
2018-11-01T12:03:03.152Z,7.50
2018-11-01T12:06:08.647Z,8.30
2018-11-01T12:09:14.300Z,6.80
2018-11-01T12:12:19.713Z,7.10
2018-11-01T12:15:25.171Z,7.50
2018-11-01T12:18:30.558Z,7.00
2018-11-01T12:21:36.031Z,7.30
2018-11-01T12:24:41.417Z,5.90
2018-11-01T12:27:46.821Z,6.87
2018-11-01T12:30:52.360Z,7.03
2018-11-01T12:33:57.958Z,6.90
2018-11-01T12:37:03.534Z,6.20
2018-11-01T12:40:12.008Z,6.43
2018-11-01T12:43:17.393Z,6.73
2018-11-01T12:46:23.351Z,6.47
2018-11-01T12:49:28.720Z,6.60
2018-11-01T12:52:34.324Z,6.47
2018-11-01T12:55:39.706Z,6.60
2018-11-01T12:58:45.054Z,6.13
2018-11-01T13:01:50.949Z,6.43
2018-11-01T13:04:57.043Z,6.20
2018-11-01T13:08:02.449Z,6.23
2018-11-01T13:11:07.842Z,6.43
2018-11-01T13:14:13.214Z,5.83
2018-11-01T13:17:18.590Z,6.33
2018-11-01T13:20:24.059Z,6.63
2018-11-01T13:23:29.459Z,6.10
2018-11-01T13:26:34.841Z,5.83
2018-11-01T13:29:40.243Z,6.73
2018-11-01T13:32:46.510Z,5.93
2018-11-01T13:35:52.040Z,5.57
2018-11-01T13:38:59.539Z,6.10
2018-11-01T13:42:07.542Z,7.50
2018-11-01T13:45:12.886Z,6.30
2018-11-01T13:48:18.456Z,6.03
2018-11-01T13:51:23.835Z,6.73
2018-11-01T13:54:30.431Z,6.17
2018-11-01T13:57:35.959Z,5.97
2018-11-01T14:00:41.330Z,5.97
2018-11-01T14:03:46.827Z,5.67
2018-11-01T14:06:52.178Z,6.20
2018-11-01T14:09:57.549Z,6.57
2018-11-01T14:13:02.931Z,6.13
2018-11-01T14:16:08.358Z,6.60
2018-11-01T14:19:17.402Z,6.07
2018-11-01T14:22:25.035Z,6.10
2018-11-01T14:25:31.457Z,6.67
2018-11-01T14:28:37.006Z,6.17
2018-11-01T14:31:43.517Z,6.50
2018-11-01T14:34:49.081Z,7.03
2018-11-01T14:37:54.524Z,6.10
2018-11-01T14:41:00.043Z,6.47
2018-11-01T14:44:06.039Z,6.90
2018-11-01T14:47:11.590Z,7.37
2018-11-01T14:50:17.135Z,7.47
2018-11-01T14:53:24.447Z,7.27
2018-11-01T14:56:30.986Z,6.47
2018-11-01T14:59:36.695Z,6.33
2018-11-01T15:02:41.100Z,6.70
2018-11-01T15:05:46.588Z,6.40
2018-11-01T15:08:51.997Z,6.70
2018-11-01T15:11:57.422Z,6.57
2018-11-01T15:15:03.126Z,6.57
2018-11-01T15:18:08.718Z,6.77
2018-11-01T15:21:14.165Z,6.47
2018-11-01T15:24:19.938Z,6.83
2018-11-01T15:27:26.889Z,6.70
2018-11-01T15:30:34.429Z,6.83
2018-11-01T15:33:40.141Z,6.90
2018-11-01T15:36:45.606Z,7.03
2018-11-01T15:39:51.510Z,6.47
2018-11-01T15:42:57.165Z,6.57
2018-11-01T15:46:02.550Z,6.83
2018-11-01T15:49:09.144Z,6.97
2018-11-01T15:52:14.671Z,7.27
2018-11-01T15:55:20.384Z,7.07
2018-11-01T15:58:26.049Z,6.87
2018-11-01T16:01:31.470Z,6.50
2018-11-01T16:04:36.894Z,6.83
2018-11-01T16:07:42.325Z,6.00
2018-11-01T16:10:47.719Z,6.97
2018-11-01T16:13:53.134Z,7.20
2018-11-01T16:16:58.535Z,6.47
2018-11-01T16:20:04.232Z,7.00
2018-11-01T16:23:10.009Z,7.20
2018-11-01T16:26:15.866Z,6.77
2018-11-01T16:29:21.263Z,7.57
2018-11-01T16:32:26.772Z,7.47
2018-11-01T16:35:32.295Z,7.77
2018-11-01T16:38:38.690Z,7.50
2018-11-01T16:41:44.310Z,7.90
2018-11-01T16:44:49.842Z,7.23
2018-11-01T16:47:55.369Z,7.87
2018-11-01T16:51:00.862Z,8.60
2018-11-01T16:54:06.547Z,7.87
2018-11-01T16:57:11.995Z,8.13
2018-11-01T17:00:17.702Z,9.10
2018-11-01T17:03:25.839Z,8.07
2018-11-01T17:06:33.402Z,8.60
2018-11-01T17:09:38.787Z,9.90
2018-11-01T17:12:44.238Z,9.23
2018-11-01T17:15:49.822Z,9.27
2018-11-01T17:18:55.218Z,8.83
2018-11-01T17:22:00.610Z,9.00
2018-11-01T17:25:06.792Z,8.90
2018-11-01T17:28:12.279Z,9.67
2018-11-01T17:31:17.675Z,9.63
2018-11-01T17:34:23.351Z,10.03
2018-11-01T17:37:28.790Z,9.57
2018-11-01T17:40:34.195Z,10.23
2018-11-01T17:51:05.916Z,10.33
2018-11-01T17:54:16.762Z,10.73
2018-11-01T17:57:22.721Z,10.90
2018-11-01T18:00:30.843Z,11.20
2018-11-01T18:03:36.266Z,11.23
2018-11-01T18:06:43.646Z,10.60
2018-11-01T18:09:49.023Z,11.63
2018-11-01T18:12:54.498Z,10.77
2018-11-01T18:15:59.905Z,11.17
2018-11-01T18:19:05.314Z,11.03
2018-11-01T18:22:10.941Z,10.17
2018-11-01T18:25:17.289Z,10.80
2018-11-01T18:28:22.793Z,11.23
2018-11-01T18:31:28.778Z,11.13
2018-11-01T18:34:34.339Z,11.87
2018-11-01T18:37:40.600Z,10.70
2018-11-01T18:40:46.227Z,10.60
2018-11-01T18:43:51.642Z,11.03
2018-11-01T18:46:57.018Z,11.13
2018-11-01T18:50:02.417Z,10.97
2018-11-01T18:53:08.027Z,11.33
2018-11-01T18:56:13.400Z,11.73
2018-11-01T18:59:19.020Z,12.03
2018-11-01T19:02:24.490Z,12.37
2018-11-01T19:05:30.003Z,11.57
2018-11-01T19:08:35.473Z,11.27
2018-11-01T19:11:41.008Z,11.03
2018-11-01T19:14:46.451Z,11.33
2018-11-01T19:17:51.853Z,10.63
2018-11-01T19:20:57.285Z,10.37
2018-11-01T19:24:02.688Z,11.13
2018-11-01T19:27:08.216Z,10.03
2018-11-01T19:30:14.328Z,10.47
2018-11-01T19:33:20.455Z,11.20
2018-11-01T19:36:25.827Z,11.03
2018-11-01T19:39:31.254Z,11.00
2018-11-01T19:42:36.898Z,10.00
2018-11-01T19:45:42.312Z,11.40
2018-11-01T19:48:47.722Z,10.07
2018-11-01T19:51:53.303Z,9.77
2018-11-01T19:54:58.706Z,11.03
2018-11-01T19:58:04.122Z,10.27
2018-11-01T20:01:09.513Z,10.97
2018-11-01T20:04:15.033Z,10.27
2018-11-01T20:07:20.558Z,10.33
2018-11-01T20:10:26.114Z,10.53
2018-11-01T20:13:31.638Z,9.67
2018-11-01T20:16:37.018Z,8.73
2018-11-01T20:19:44.004Z,9.33
2018-11-01T20:22:50.134Z,8.30
2018-11-01T20:25:55.533Z,9.43
2018-11-01T20:29:00.923Z,9.03
2018-11-01T20:32:06.571Z,8.93
2018-11-01T20:35:13.902Z,9.07
2018-11-01T20:38:19.991Z,8.37
2018-11-01T20:41:25.537Z,8.90
2018-11-01T20:44:30.947Z,8.43
2018-11-01T20:47:36.700Z,8.17
2018-11-01T20:50:42.331Z,7.73
2018-11-01T20:53:47.693Z,8.33
2018-11-01T20:56:53.088Z,8.23
2018-11-01T20:59:58.723Z,8.13
2018-11-01T21:03:04.110Z,8.27
2018-11-01T21:06:09.515Z,7.73
2018-11-01T21:09:14.943Z,7.33
2018-11-01T21:12:20.345Z,7.93
2018-11-01T21:15:25.774Z,8.17
2018-11-01T21:18:31.293Z,7.67
2018-11-01T21:21:37.273Z,8.53
2018-11-01T21:24:43.014Z,8.17
2018-11-01T21:27:48.858Z,8.03
2018-11-01T21:30:56.365Z,8.77
2018-11-01T21:34:01.802Z,8.70
2018-11-01T21:37:07.594Z,8.87
2018-11-01T21:40:13.184Z,7.80
2018-11-01T21:43:18.594Z,8.97
2018-11-01T21:46:23.965Z,9.27
2018-11-01T21:49:29.329Z,9.90
2018-11-01T21:52:34.716Z,9.60
2018-11-01T21:55:40.364Z,9.87
2018-11-01T21:58:45.729Z,9.40
2018-11-01T22:01:51.118Z,9.47
2018-11-01T22:04:56.474Z,9.67
2018-11-01T22:08:01.848Z,10.07
2018-11-01T22:11:07.542Z,10.57
2018-11-01T22:14:13.165Z,10.73
2018-11-01T22:17:18.566Z,10.13
2018-11-01T22:20:23.921Z,10.63
2018-11-01T22:23:29.447Z,11.03
2018-11-01T22:26:35.722Z,11.80
2018-11-01T22:29:41.079Z,11.67
2018-11-01T22:32:46.487Z,11.27
2018-11-01T22:35:51.847Z,11.87
2018-11-01T22:38:57.260Z,11.87
2018-11-01T22:42:03.352Z,12.57
2018-11-01T22:45:10.310Z,13.13
2018-11-01T22:48:15.730Z,13.10
2018-11-01T22:51:21.246Z,13.37
2018-11-01T22:54:26.638Z,12.40
2018-11-01T22:57:32.058Z,13.43
2018-11-01T23:00:41.501Z,14.60
2018-11-01T23:03:46.909Z,15.23
2018-11-01T23:06:52.348Z,14.40
2018-11-01T23:09:57.794Z,13.40
2018-11-01T23:13:03.568Z,14.67
2018-11-01T23:16:09.947Z,14.80
2018-11-01T23:19:15.346Z,14.27
2018-11-01T23:22:21.198Z,13.53
2018-11-01T23:25:26.883Z,13.33
2018-11-01T23:28:32.322Z,14.23
2018-11-01T23:31:37.786Z,13.70
2018-11-01T23:34:43.343Z,13.80
2018-11-01T23:37:53.989Z,15.20
2018-11-01T23:41:04.556Z,15.93
2018-11-01T23:44:15.267Z,15.03
2018-11-01T23:47:25.907Z,16.67
2018-11-01T23:50:41.142Z,16.80
2018-11-01T23:53:50.666Z,16.73
2018-11-01T23:56:56.022Z,15.93
